
| Día | Hora | Temp. (°C) | Punto de Rocío (°C) | Rad. Solar (W) | Vel. Viento (km/h) | Dir. Viento (°) | Gust (m/s) | Hum. Relativa (%) | Pres. Atmosfética (hPa) | Precipitación (mm) |
|---|---|---|---|---|---|---|---|---|---|---|
06/05/26 | 00:00 | +15.1 | 7,7 | 0.0 | 6.1 | 326 | 2.6 | 61.3 | 1004.7 | 2.2 |
06/05/26 | 00:10 | +15.5 | 7,1 | 0.0 | 3.2 | 268 | 2.3 | 57.2 | 1004.7 | 2.2 |
06/05/26 | 00:20 | +15.6 | 6,9 | 0.0 | 2.5 | 254 | 1.7 | 56.0 | 1004.7 | 0.0 |
06/05/26 | 00:30 | +15.6 | 6,5 | 0.0 | 0.7 | 231 | 1.4 | 54.7 | 1004.6 | 0.0 |
06/05/26 | 00:40 | +16.1 | 6,0 | 0.0 | 3.6 | 87 | 2.9 | 51.0 | 1004.4 | 0.0 |
06/05/26 | 00:50 | +16.0 | 6,4 | 0.0 | 3.2 | 326 | 2.1 | 52.9 | 1004.3 | 0.0 |
06/05/26 | 01:00 | +16.1 | 6,4 | 0.0 | 2.9 | 79 | 2.1 | 52.4 | 1004.2 | 0.0 |
06/05/26 | 01:10 | +16.0 | 6,5 | 0.0 | 2.5 | 152 | 1.7 | 53.1 | 1004.2 | 0.0 |
06/05/26 | 01:20 | +15.2 | 6,9 | 0.0 | 2.9 | 128 | 1.2 | 57.5 | 1004.2 | 0.0 |
06/05/26 | 01:30 | +14.9 | 7,0 | 0.0 | 2.9 | 202 | 2.2 | 59.0 | 1004.1 | 0.0 |
06/05/26 | 01:40 | +14.1 | 7,3 | 0.0 | 1.8 | 123 | 1.6 | 63.7 | 1004.2 | 0.0 |
06/05/26 | 01:50 | +14.1 | 6,7 | 0.0 | 2.2 | 252 | 1.1 | 61.0 | 1004.2 | 0.0 |
06/05/26 | 02:00 | +14.2 | 6,8 | 0.0 | 0 | 5 | 0.7 | 61.0 | 1004.3 | 0.0 |
06/05/26 | 02:10 | +14.4 | 6,3 | 0.0 | 2.2 | 306 | 2.2 | 58.1 | 1004.3 | 0.0 |
06/05/26 | 02:20 | +15.0 | 5,2 | 0.0 | 4.3 | 317 | 2.5 | 52.0 | 1004.3 | 0.0 |
06/05/26 | 02:30 | +14.9 | 5,2 | 0.0 | 6.5 | 334 | 2.6 | 52.1 | 1004.3 | 0.0 |
06/05/26 | 02:40 | +14.5 | 6,4 | 0.0 | 1.8 | 168 | 2.4 | 58.4 | 1004.4 | 0.0 |
06/05/26 | 02:50 | +13.9 | 6,3 | 0.0 | 0 | 272 | 0.5 | 60.0 | 1004.4 | 0.0 |
06/05/26 | 03:00 | +13.9 | 6,5 | 0.0 | 0 | 66 | 0 | 60.9 | 1004.4 | 0.0 |
06/05/26 | 03:10 | +13.9 | 6,2 | 0.0 | 0 | 170 | 0 | 59.8 | 1004.3 | 0.0 |
06/05/26 | 03:20 | +13.8 | 5,7 | 0.0 | 0 | 249 | 0 | 58.2 | 1004.4 | 0.0 |
06/05/26 | 03:30 | +13.7 | 5,9 | 0.0 | 0 | 303 | 0 | 59.2 | 1004.4 | 0.0 |
06/05/26 | 03:40 | +13.3 | 6,1 | 0.0 | 0 | 181 | 0 | 61.6 | 1004.4 | 0.0 |
06/05/26 | 03:50 | +13.3 | 6,6 | 0.0 | 0 | 178 | 0 | 63.6 | 1004.3 | 0.0 |
06/05/26 | 04:00 | +12.9 | 6,6 | 0.0 | 2.9 | 162 | 1.5 | 65.6 | 1004.3 | 0.0 |
06/05/26 | 04:10 | +12.4 | 6,7 | 0.0 | 2.9 | 196 | 2 | 68.1 | 1004.5 | 0.0 |
06/05/26 | 04:20 | +11.8 | 7,1 | 0.0 | 6.1 | 230 | 2 | 72.8 | 1004.8 | 0.0 |
06/05/26 | 04:30 | +11.7 | 7,1 | 0.0 | 7.2 | 251 | 3.3 | 73.5 | 1004.9 | 0.0 |
06/05/26 | 04:40 | +11.5 | 7,4 | 0.0 | 3.6 | 273 | 2.6 | 75.9 | 1005.0 | 0.0 |
06/05/26 | 04:50 | +11.6 | 7,3 | 0.0 | 5.8 | 297 | 2.6 | 75.1 | 1005.1 | 0.0 |
06/05/26 | 05:00 | +11.9 | 6,9 | 0.0 | 6.1 | 302 | 3 | 71.6 | 1005.1 | 0.0 |
06/05/26 | 05:10 | +11.9 | 6,6 | 0.0 | 8.6 | 322 | 3.9 | 70.1 | 1005.1 | 0.0 |
06/05/26 | 05:20 | +11.8 | 6,8 | 3.7 | 5.4 | 280 | 3.3 | 71.5 | 1005.2 | 0.0 |
06/05/26 | 05:30 | +11.9 | 6,8 | 7.5 | 4.3 | 306 | 2.7 | 70.9 | 1005.1 | 0.0 |
06/05/26 | 05:40 | +12.3 | 6,6 | 11.6 | 5 | 259 | 3 | 68.0 | 1005.1 | 0.0 |
06/05/26 | 05:50 | +12.6 | 7,1 | 15.3 | 10.1 | 275 | 3.1 | 69.1 | 1005.0 | 0.0 |
06/05/26 | 06:00 | +12.9 | 7,1 | 18.8 | 4.7 | 264 | 3 | 67.7 | 1005.0 | 0.0 |
06/05/26 | 06:10 | +13.3 | 7,5 | 25.2 | 5.8 | 238 | 1.9 | 67.9 | 1005.1 | 0.0 |
06/05/26 | 06:20 | +13.7 | 8,0 | 30.6 | 4.3 | 226 | 2.7 | 68.5 | 1005.2 | 0.0 |
06/05/26 | 06:30 | +14.4 | 7,6 | 36.4 | 7.2 | 266 | 2.6 | 63.7 | 1005.2 | 0.0 |
06/05/26 | 06:40 | +14.9 | 7,4 | 41.3 | 5.4 | 240 | 2.7 | 60.8 | 1005.3 | 0.0 |
06/05/26 | 06:50 | +15.2 | 7,6 | 48.8 | 4.7 | 239 | 2.4 | 60.6 | 1005.2 | 0.0 |
06/05/26 | 07:00 | +15.6 | 7,6 | 55.2 | 5.4 | 249 | 1.8 | 58.9 | 1005.3 | 0.0 |
06/05/26 | 07:10 | +16.1 | 7,2 | 62.0 | 4.3 | 282 | 2 | 55.6 | 1005.2 | 0.0 |
06/05/26 | 07:20 | +17.0 | 7,3 | 66.9 | 0 | 124 | 1.5 | 52.9 | 1005.0 | 0.0 |
06/05/26 | 07:30 | +18.1 | 6,7 | 63.8 | 0 | 76 | 0 | 47.1 | 1004.7 | 0.0 |
06/05/26 | 07:40 | +18.5 | 7,6 | 84.8 | 0 | 75 | 1.6 | 48.9 | 1004.5 | 0.0 |
06/05/26 | 07:50 | +18.8 | 7,0 | 92.3 | 1.4 | 103 | 2.5 | 46.3 | 1004.1 | 0.0 |
06/05/26 | 08:00 | +19.1 | 7,5 | 99.7 | 2.9 | 267 | 2.3 | 47.0 | 1003.8 | 0.0 |
06/05/26 | 08:10 | +19.5 | 8,3 | 106.8 | 2.2 | 214 | 2.1 | 48.4 | 1003.8 | 0.0 |
06/05/26 | 08:20 | +19.6 | 8,4 | 115.0 | 7.6 | 72 | 2.7 | 48.3 | 1003.7 | 0.0 |
06/05/26 | 08:30 | +19.8 | 8,3 | 121.3 | 3.6 | 355 | 3.4 | 47.5 | 1003.4 | 0.0 |
06/05/26 | 08:40 | +19.6 | 8,7 | 129.1 | 12.6 | 56 | 3.5 | 49.3 | 1003.3 | 0.0 |
06/05/26 | 08:50 | +19.6 | 9,2 | 136.2 | 6.8 | 115 | 4.1 | 51.1 | 1003.2 | 0.0 |
06/05/26 | 09:00 | +19.8 | 8,7 | 142.6 | 3.6 | 337 | 4.5 | 48.7 | 1003.2 | 0.0 |
06/05/26 | 09:10 | +19.9 | 8,6 | 149.3 | 6.5 | 46 | 3.4 | 48.0 | 1003.2 | 0.0 |
06/05/26 | 09:20 | +20.3 | 8,2 | 155.8 | 9.4 | 27 | 3.6 | 45.7 | 1003.2 | 0.0 |
06/05/26 | 09:30 | +20.0 | 8,1 | 161.7 | 8.6 | 48 | 3.5 | 46.1 | 1003.3 | 0.0 |
06/05/26 | 09:40 | +20.1 | 7,8 | 168.7 | 3.2 | 89 | 3.8 | 45.0 | 1003.2 | 0.0 |
06/05/26 | 09:50 | +20.0 | 7,9 | 174.4 | 7.2 | 86 | 3.2 | 45.5 | 1003.2 | 0.0 |
06/05/26 | 10:00 | +20.3 | 7,2 | 180.8 | 2.2 | 32 | 4.1 | 42.7 | 1003.2 | 0.0 |
06/05/26 | 10:10 | +20.6 | 7,4 | 184.7 | 7.9 | 53 | 3.4 | 42.4 | 1003.1 | 0.0 |
06/05/26 | 10:20 | +21.1 | 7,7 | 189.2 | 8.6 | 126 | 3.5 | 42.1 | 1003.0 | 0.0 |
06/05/26 | 10:30 | +21.8 | 8,0 | 193.4 | 6.1 | 156 | 2.8 | 41.2 | 1003.0 | 0.0 |
06/05/26 | 10:40 | +21.5 | 8,1 | 197.3 | 5.4 | 316 | 4.8 | 42.0 | 1002.9 | 0.0 |
06/05/26 | 10:50 | +21.3 | 7,9 | 200.9 | 10.8 | 130 | 5.3 | 42.2 | 1002.8 | 0.0 |
06/05/26 | 11:00 | +22.0 | 8,5 | 205.0 | 11.5 | 333 | 5 | 42.1 | 1002.6 | 0.0 |
06/05/26 | 11:10 | +21.3 | 9,3 | 204.3 | 14.8 | 104 | 5.1 | 46.3 | 1002.6 | 0.0 |
06/05/26 | 11:20 | +21.7 | 9,2 | 208.1 | 5.8 | 17 | 4.5 | 44.7 | 1002.5 | 0.0 |
06/05/26 | 11:30 | +21.6 | 9,0 | 211.2 | 4 | 147 | 5.6 | 44.6 | 1002.3 | 0.0 |
06/05/26 | 11:40 | +21.4 | 9,2 | 212.1 | 8.6 | 112 | 4.6 | 45.8 | 1002.2 | 0.0 |
06/05/26 | 11:50 | +21.8 | 8,9 | 228.0 | 9 | 56 | 4.5 | 43.6 | 1002.3 | 0.0 |
06/05/26 | 12:00 | +21.5 | 8,6 | 77.3 | 7.6 | 125 | 4 | 43.5 | 1002.3 | 0.0 |
06/05/26 | 12:10 | +21.3 | 8,9 | 61.8 | 4 | 168 | 3.2 | 45.0 | 1002.4 | 0.0 |
06/05/26 | 12:20 | +21.0 | 8,8 | 136.0 | 4.3 | 245 | 3.4 | 45.4 | 1002.3 | 0.0 |
06/05/26 | 12:30 | +20.9 | 8,9 | 131.0 | 2.9 | 168 | 4.8 | 46.0 | 1002.0 | 0.0 |
06/05/26 | 12:40 | +21.2 | 8,5 | 239.6 | 5.4 | 109 | 4.4 | 44.0 | 1002.1 | 0.0 |
06/05/26 | 12:50 | +21.4 | 9,0 | 214.2 | 2.5 | 204 | 3.4 | 45.1 | 1002.1 | 0.0 |
06/05/26 | 13:00 | +21.7 | 8,8 | 204.2 | 4.3 | 162 | 4.5 | 43.6 | 1002.0 | 0.0 |
06/05/26 | 13:10 | +22.0 | 9,0 | 203.9 | 5 | 84 | 3.6 | 43.5 | 1001.9 | 0.0 |
06/05/26 | 13:20 | +22.0 | 8,6 | 235.0 | 6.5 | 52 | 4.3 | 42.3 | 1001.9 | 0.0 |
06/05/26 | 13:30 | +21.4 | 8,6 | 57.0 | 7.2 | 130 | 5 | 43.8 | 1001.9 | 0.0 |
06/05/26 | 13:40 | +20.5 | 8,8 | 62.5 | 9.7 | 150 | 4.5 | 46.9 | 1002.0 | 0.0 |
06/05/26 | 13:50 | +20.2 | 8,9 | 67.2 | 2.2 | 146 | 4.1 | 48.1 | 1002.1 | 0.0 |
06/05/26 | 14:00 | +19.9 | 8,6 | 58.0 | 12.2 | 121 | 4.6 | 48.2 | 1002.3 | 0.0 |
06/05/26 | 14:10 | +19.9 | 8,5 | 44.4 | 3.6 | 28 | 4 | 47.6 | 1002.2 | 0.0 |
06/05/26 | 14:20 | +19.8 | 8,7 | 41.0 | 8.6 | 78 | 3.1 | 48.6 | 1002.1 | 0.0 |
06/05/26 | 14:30 | +19.3 | 8,3 | 49.7 | 5.4 | 11 | 3.9 | 49.0 | 1002.3 | 0.0 |
06/05/26 | 14:40 | +19.1 | 8,2 | 46.1 | 7.2 | 42 | 3.5 | 49.1 | 1002.5 | 0.0 |
06/05/26 | 14:50 | +19.1 | 8,2 | 40.1 | 7.2 | 75 | 4 | 49.2 | 1002.4 | 0.0 |
06/05/26 | 15:00 | +19.4 | 8,6 | 59.5 | 3.2 | 79 | 3.6 | 49.7 | 1002.6 | 0.0 |
06/05/26 | 15:10 | +19.4 | 8,3 | 54.8 | 5.8 | 29 | 3.1 | 48.7 | 1002.3 | 0.0 |
06/05/26 | 15:20 | +19.8 | 9,0 | 46.9 | 2.5 | 319 | 2.3 | 49.7 | 1002.5 | 0.0 |
06/05/26 | 15:30 | +19.9 | 8,9 | 44.7 | 4.7 | 79 | 3.2 | 49.1 | 1002.5 | 0.0 |
06/05/26 | 15:40 | +19.7 | 8,7 | 49.4 | 0 | 244 | 2.9 | 49.0 | 1002.4 | 0.0 |
06/05/26 | 15:50 | +19.9 | 8,2 | 55.3 | 0 | 164 | 2.2 | 46.8 | 1002.2 | 0.0 |
06/05/26 | 16:00 | +21.1 | 7,9 | 124.3 | 4.3 | 171 | 1.8 | 42.5 | 1002.1 | 0.0 |
06/05/26 | 16:10 | +21.4 | 8,3 | 97.1 | 4.7 | 358 | 2.8 | 43.1 | 1001.8 | 0.0 |
06/05/26 | 16:20 | +21.0 | 7,5 | 83.9 | 7.2 | 163 | 4.1 | 41.8 | 1001.6 | 0.0 |
06/05/26 | 16:30 | +20.4 | 7,5 | 13.8 | 7.9 | 199 | 3.4 | 43.3 | 1001.4 | 0.0 |
06/05/26 | 16:40 | +20.1 | 8,7 | 21.4 | 6.5 | 159 | 4.5 | 47.7 | 1001.4 | 0.0 |
06/05/26 | 16:50 | +19.7 | 8,8 | 55.3 | 8.3 | 150 | 3.2 | 49.3 | 1001.6 | 0.0 |
06/05/26 | 17:00 | +19.9 | 9,0 | 63.0 | 7.2 | 161 | 3 | 49.5 | 1001.7 | 0.0 |
06/05/26 | 17:10 | +19.9 | 8,7 | 56.8 | 10.8 | 133 | 3.5 | 48.5 | 1001.7 | 0.0 |
06/05/26 | 17:20 | +20.6 | 8,8 | 43.6 | 2.2 | 83 | 3.5 | 46.8 | 1001.8 | 0.0 |
06/05/26 | 17:30 | +21.1 | 8,1 | 40.1 | 5.4 | 162 | 2.3 | 43.1 | 1001.7 | 0.0 |
06/05/26 | 17:40 | +20.7 | 8,4 | 34.1 | 4.3 | 150 | 2.4 | 45.0 | 1001.6 | 0.0 |
06/05/26 | 17:50 | +20.7 | 8,2 | 27.6 | 3.2 | 179 | 2.6 | 44.5 | 1001.6 | 0.0 |
06/05/26 | 18:00 | +20.9 | 7,3 | 23.5 | 0 | 99 | 1.9 | 41.5 | 1001.6 | 0.0 |
06/05/26 | 18:10 | +20.8 | 7,1 | 16.8 | 5.4 | 112 | 2.2 | 41.0 | 1001.6 | 0.0 |
06/05/26 | 18:20 | +21.1 | 7,5 | 4.7 | 0 | 345 | 1.5 | 41.4 | 1001.5 | 0.0 |
06/05/26 | 18:30 | +20.2 | 7,3 | 1.9 | 0 | 36 | 1.2 | 43.1 | 1001.6 | 0.0 |
06/05/26 | 18:40 | +19.7 | 7,1 | 0.0 | 0 | 348 | 0.9 | 44.1 | 1001.9 | 0.0 |
06/05/26 | 18:50 | +19.3 | 8,7 | 0.0 | 2.2 | 49 | 0.6 | 50.2 | 1002.2 | 0.0 |
06/05/26 | 19:00 | +18.6 | 9,6 | 0.0 | 2.9 | 39 | 1.9 | 55.9 | 1002.5 | 0.0 |
06/05/26 | 19:10 | +18.2 | 10,1 | 0.0 | 0 | 51 | 1.6 | 59.3 | 1002.8 | 0.0 |
06/05/26 | 19:20 | +18.0 | 10,0 | 0.0 | 5.8 | 95 | 1.7 | 59.6 | 1003.1 | 0.0 |
06/05/26 | 19:30 | +17.9 | 10,0 | 0.0 | 0 | 175 | 1.6 | 59.8 | 1003.3 | 0.0 |
06/05/26 | 19:40 | +17.7 | 10,2 | 0.0 | 0 | 331 | 0.4 | 61.6 | 1003.6 | 0.0 |
06/05/26 | 19:50 | +17.4 | 10,2 | 0.0 | 0 | 324 | 0 | 62.5 | 1003.8 | 0.0 |
06/05/26 | 20:00 | +17.3 | 10,2 | 0.0 | 0.4 | 140 | 0.1 | 63.1 | 1004.1 | 0.0 |
06/05/26 | 20:10 | +17.1 | 10,2 | 0.0 | 0 | 204 | 0.7 | 64.0 | 1004.3 | 0.0 |
06/05/26 | 20:20 | +17.0 | 10,3 | 0.0 | 0 | 195 | 0 | 64.5 | 1004.5 | 0.0 |
06/05/26 | 20:30 | +16.8 | 10,3 | 0.0 | 0 | 166 | 0 | 65.7 | 1004.5 | 0.0 |
06/05/26 | 20:40 | +16.5 | 10,5 | 0.0 | 0 | 335 | 0 | 67.7 | 1004.7 | 0.0 |
06/05/26 | 20:50 | +16.4 | 10,5 | 0.0 | 0 | 306 | 0 | 68.2 | 1004.9 | 0.0 |
06/05/26 | 21:00 | +16.5 | 10,4 | 0.0 | 0 | 245 | 0 | 67.4 | 1004.9 | 0.0 |
06/05/26 | 21:10 | +16.4 | 10,5 | 0.0 | 0 | 289 | 0 | 68.0 | 1005.1 | 0.0 |
06/05/26 | 21:20 | +16.3 | 10,4 | 0.0 | 4 | 302 | 1.2 | 68.2 | 1005.2 | 0.0 |
06/05/26 | 21:30 | +16.2 | 10,4 | 0.0 | 3.6 | 300 | 1.3 | 68.3 | 1005.3 | 0.0 |
06/05/26 | 21:40 | +16.1 | 10,4 | 0.0 | 4.3 | 311 | 1.6 | 68.8 | 1005.2 | 0.0 |
06/05/26 | 21:50 | +16.2 | 10,2 | 0.0 | 2.5 | 279 | 1.7 | 67.7 | 1005.4 | 0.0 |
06/05/26 | 22:00 | +16.1 | 10,3 | 0.0 | 0 | 322 | 1.2 | 68.3 | 1005.3 | 0.0 |
06/05/26 | 22:10 | +15.9 | 10,2 | 0.0 | 2.2 | 347 | 1.7 | 68.9 | 1005.3 | 0.0 |
06/05/26 | 22:20 | +15.7 | 9,9 | 0.0 | 5.8 | 331 | 1.8 | 68.2 | 1005.4 | 0.0 |
06/05/26 | 22:30 | +15.7 | 9,9 | 0.0 | 5 | 4 | 2 | 68.3 | 1005.4 | 0.0 |
06/05/26 | 22:40 | +15.5 | 9,6 | 0.0 | 7.6 | 314 | 2.4 | 67.9 | 1005.4 | 0.0 |
06/05/26 | 22:50 | +15.5 | 9,5 | 0.0 | 7.2 | 291 | 2.3 | 67.4 | 1005.5 | 0.0 |
06/05/26 | 23:00 | +15.3 | 9,6 | 0.0 | 4.7 | 298 | 2.2 | 68.7 | 1005.5 | 0.0 |
06/05/26 | 23:10 | +15.2 | 9,4 | 0.0 | 2.9 | 344 | 2.8 | 68.2 | 1005.6 | 0.0 |
06/05/26 | 23:20 | +14.7 | 9,5 | 0.0 | 5 | 305 | 2.1 | 71.2 | 1005.5 | 0.0 |
06/05/26 | 23:30 | +15.0 | 9,0 | 0.0 | 7.9 | 316 | 2.7 | 67.4 | 1005.4 | 0.0 |
06/05/26 | 23:40 | +15.5 | 8,8 | 0.0 | 7.2 | 306 | 3 | 64.4 | 1005.4 | 0.0 |
06/05/26 | 23:50 | +15.6 | 8,8 | 0.0 | 6.1 | 323 | 2.7 | 63.8 | 1005.3 | 0.0 |
07/05/26 | 00:00 | +14.6 | 9,4 | 0.0 | 3.6 | 6 | 2.1 | 70.8 | 1005.3 | 0.0 |
07/05/26 | 00:10 | +14.1 | 9,4 | 0.0 | 3.2 | 302 | 1.7 | 73.2 | 1005.3 | 0.0 |
07/05/26 | 00:20 | +13.8 | 9,5 | 0.0 | 6.5 | 289 | 2.2 | 75.0 | 1005.3 | 0.0 |
07/05/26 | 00:30 | +13.0 | 9,6 | 0.0 | 7.9 | 268 | 2.8 | 79.7 | 1005.3 | 0.0 |
07/05/26 | 00:40 | +13.4 | 9,5 | 0.0 | 9.7 | 313 | 3 | 77.0 | 1005.1 | 0.0 |
07/05/26 | 00:50 | +14.7 | 8,3 | 0.0 | 8.6 | 313 | 3.2 | 65.6 | 1005.1 | 0.0 |
07/05/26 | 01:00 | +15.0 | 8,6 | 0.0 | 4.3 | 291 | 2.7 | 65.5 | 1005.0 | 0.0 |
07/05/26 | 01:10 | +14.2 | 8,8 | 0.0 | 0 | 287 | 1.7 | 70.1 | 1005.0 | 0.0 |
07/05/26 | 01:20 | +14.1 | 8,6 | 0.0 | 3.2 | 264 | 2.2 | 69.6 | 1004.9 | 0.0 |
07/05/26 | 01:30 | +13.2 | 9,1 | 0.0 | 4.7 | 273 | 2.3 | 76.0 | 1004.9 | 0.0 |
07/05/26 | 01:40 | +12.7 | 9,2 | 0.0 | 7.6 | 297 | 2.8 | 79.3 | 1004.9 | 0.0 |
07/05/26 | 01:50 | +12.5 | 9,4 | 0.0 | 7.6 | 282 | 2.6 | 81.1 | 1005.1 | 0.0 |
07/05/26 | 02:00 | +12.3 | 9,5 | 0.0 | 5 | 242 | 2.7 | 82.9 | 1005.1 | 0.0 |
07/05/26 | 02:10 | +12.4 | 9,7 | 0.0 | 7.6 | 200 | 2.6 | 83.5 | 1005.1 | 0.0 |
07/05/26 | 02:20 | +12.5 | 9,6 | 0.0 | 1.4 | 346 | 2.3 | 82.5 | 1005.2 | 0.0 |
07/05/26 | 02:30 | +12.4 | 9,4 | 0.0 | 2.9 | 171 | 1.6 | 82.0 | 1005.3 | 0.0 |
07/05/26 | 02:40 | +12.3 | 9,7 | 0.0 | 5 | 269 | 3.1 | 84.0 | 1005.4 | 0.0 |
07/05/26 | 02:50 | +12.3 | 9,6 | 0.0 | 8.3 | 292 | 3.4 | 83.4 | 1005.4 | 0.0 |
07/05/26 | 03:00 | +12.4 | 9,6 | 0.0 | 7.9 | 299 | 2.9 | 82.9 | 1005.3 | 0.0 |
07/05/26 | 03:10 | +12.4 | 9,7 | 0.0 | 0 | 298 | 3 | 83.3 | 1005.4 | 0.0 |
07/05/26 | 03:20 | +12.2 | 9,5 | 0.0 | 0.4 | 269 | 1.2 | 83.6 | 1005.4 | 0.0 |
07/05/26 | 03:30 | +12.1 | 9,6 | 0.0 | 1.1 | 152 | 1.2 | 84.5 | 1005.5 | 0.0 |
07/05/26 | 03:40 | +12.1 | 9,7 | 0.0 | 2.2 | 131 | 2.5 | 85.1 | 1005.4 | 0.0 |
07/05/26 | 03:50 | +12.3 | 9,4 | 0.0 | 0 | 316 | 1.3 | 82.6 | 1005.4 | 0.0 |
07/05/26 | 04:00 | +12.7 | 9,2 | 0.0 | 0 | 321 | 1.1 | 79.1 | 1005.3 | 0.0 |
07/05/26 | 04:10 | +12.6 | 8,9 | 0.0 | 0 | 146 | 0.1 | 78.4 | 1005.3 | 0.0 |
07/05/26 | 04:20 | +12.2 | 9,1 | 0.0 | 0 | 253 | 1.1 | 81.6 | 1005.3 | 0.0 |
07/05/26 | 04:30 | +12.3 | 9,0 | 0.0 | 3.2 | 302 | 1.3 | 80.1 | 1005.3 | 0.0 |
07/05/26 | 04:40 | +12.3 | 8,9 | 0.0 | 1.4 | 305 | 1.3 | 79.9 | 1005.4 | 0.0 |
07/05/26 | 04:50 | +11.9 | 9,1 | 0.0 | 2.2 | 83 | 1.9 | 83.1 | 1005.5 | 0.0 |
07/05/26 | 05:00 | +11.8 | 9,1 | 0.0 | 0 | 239 | 1.3 | 83.3 | 1005.7 | 0.0 |
07/05/26 | 05:10 | +11.8 | 9,1 | 0.0 | 1.1 | 236 | 1.3 | 83.6 | 1005.8 | 0.0 |
07/05/26 | 05:20 | +11.8 | 9,2 | 0.0 | 0 | 146 | 0.7 | 83.8 | 1006.0 | 0.0 |
07/05/26 | 05:30 | +11.9 | 9,3 | 7.2 | 0 | 284 | 0.9 | 84.0 | 1006.0 | 0.0 |
07/05/26 | 05:40 | +13.2 | 9,3 | 14.5 | 0 | 316 | 0 | 77.3 | 1006.1 | 0.0 |
07/05/26 | 05:50 | +13.8 | 9,2 | 22.6 | 0 | 263 | 0 | 73.7 | 1006.1 | 0.0 |
07/05/26 | 06:00 | +14.3 | 9,3 | 25.3 | 0 | 49 | 0 | 72.0 | 1006.1 | 0.0 |
07/05/26 | 06:10 | +14.7 | 10,0 | 31.8 | 0 | 143 | 0 | 73.3 | 1006.1 | 0.0 |
07/05/26 | 06:20 | +15.7 | 10,4 | 37.0 | 0 | 359 | 0 | 70.6 | 1005.9 | 0.0 |
07/05/26 | 06:30 | +16.4 | 10,2 | 34.9 | 2.9 | 236 | 0.9 | 66.8 | 1005.9 | 0.0 |
07/05/26 | 06:40 | +16.7 | 9,9 | 43.2 | 0 | 264 | 1.4 | 64.0 | 1005.8 | 0.0 |
07/05/26 | 06:50 | +17.6 | 9,4 | 55.6 | 0 | 303 | 0 | 58.7 | 1005.7 | 0.0 |
07/05/26 | 07:00 | +17.8 | 9,5 | 48.5 | 1.1 | 317 | 0.8 | 58.2 | 1005.6 | 0.0 |
07/05/26 | 07:10 | +18.1 | 9,7 | 20.9 | 2.9 | 116 | 1.4 | 57.9 | 1005.5 | 0.0 |
07/05/26 | 07:20 | +18.9 | 10,4 | 30.8 | 6.8 | 108 | 1.9 | 57.9 | 1005.3 | 0.0 |
07/05/26 | 07:30 | +19.0 | 11,5 | 80.9 | 4 | 357 | 3.7 | 61.6 | 1005.1 | 0.0 |
07/05/26 | 07:40 | +19.3 | 12,1 | 103.5 | 7.2 | 64 | 4.2 | 63.2 | 1004.9 | 0.0 |
07/05/26 | 07:50 | +18.7 | 12,0 | 109.1 | 8.3 | 32 | 4.1 | 65.1 | 1004.7 | 0.0 |
07/05/26 | 08:00 | +19.0 | 11,4 | 112.6 | 7.9 | 188 | 4.7 | 61.4 | 1004.5 | 0.0 |
07/05/26 | 08:10 | +19.2 | 11,3 | 113.8 | 12.6 | 89 | 4.3 | 60.2 | 1004.5 | 0.0 |
07/05/26 | 08:20 | +19.4 | 11,6 | 76.1 | 2.9 | 281 | 4.2 | 60.6 | 1004.3 | 0.0 |
07/05/26 | 08:30 | +19.3 | 11,3 | 96.1 | 0 | 213 | 3.6 | 59.7 | 1004.3 | 0.0 |
07/05/26 | 08:40 | +19.4 | 11,2 | 107.4 | 8.6 | 66 | 4.1 | 59.2 | 1004.4 | 0.0 |
07/05/26 | 08:50 | +19.9 | 11,3 | 137.0 | 2.5 | 166 | 3.7 | 57.5 | 1004.2 | 0.0 |
07/05/26 | 09:00 | +20.4 | 11,3 | 158.5 | 1.1 | 154 | 5.3 | 55.9 | 1004.1 | 0.0 |
07/05/26 | 09:10 | +20.4 | 11,9 | 86.3 | 6.1 | 18 | 3.6 | 58.1 | 1004.1 | 0.0 |
07/05/26 | 09:20 | +20.4 | 11,9 | 83.2 | 6.8 | 53 | 3.6 | 58.1 | 1004.0 | 0.0 |
07/05/26 | 09:30 | +20.5 | 11,7 | 84.8 | 9.7 | 113 | 4.8 | 57.1 | 1003.9 | 0.0 |
07/05/26 | 09:40 | +20.1 | 11,6 | 57.2 | 9.4 | 74 | 4 | 57.9 | 1004.0 | 0.0 |
07/05/26 | 09:50 | +19.6 | 11,8 | 68.9 | 3.6 | 57 | 4 | 60.8 | 1003.9 | 0.0 |
07/05/26 | 10:00 | +20.2 | 11,1 | 196.9 | 3.6 | 79 | 5.5 | 55.9 | 1003.9 | 0.0 |
07/05/26 | 10:10 | +20.8 | 11,1 | 204.0 | 10.1 | 66 | 5.2 | 53.7 | 1003.8 | 0.0 |
07/05/26 | 10:20 | +21.0 | 11,5 | 220.9 | 8.3 | 120 | 6.1 | 54.4 | 1003.7 | 0.0 |
07/05/26 | 10:30 | +21.6 | 11,5 | 185.1 | 4 | 150 | 5.4 | 52.7 | 1003.6 | 0.0 |
07/05/26 | 10:40 | +21.6 | 9,7 | 111.5 | 7.2 | 88 | 5.6 | 46.8 | 1003.5 | 0.0 |
07/05/26 | 10:50 | +21.3 | 9,3 | 157.7 | 6.8 | 49 | 5.6 | 46.3 | 1003.4 | 0.0 |
07/05/26 | 11:00 | +21.2 | 10,4 | 90.7 | 6.5 | 331 | 5 | 50.0 | 1003.3 | 0.0 |
07/05/26 | 11:10 | +21.4 | 11,3 | 178.5 | 6.8 | 288 | 5.9 | 52.6 | 1003.3 | 0.0 |
07/05/26 | 11:20 | +21.8 | 11,2 | 196.1 | 2.9 | 340 | 6.6 | 51.0 | 1003.2 | 0.0 |
07/05/26 | 11:30 | +22.5 | 10,0 | 243.3 | 9.7 | 176 | 5.6 | 45.2 | 1003.0 | 0.0 |
07/05/26 | 11:40 | +22.3 | 10,1 | 192.1 | 17.3 | 93 | 5.3 | 46.0 | 1002.9 | 0.0 |
07/05/26 | 11:50 | +22.3 | 8,6 | 244.8 | 11.5 | 31 | 5.2 | 41.4 | 1002.7 | 0.0 |
07/05/26 | 12:00 | +22.7 | 8,8 | 195.3 | 9.7 | 120 | 5.1 | 41.1 | 1002.5 | 0.0 |
07/05/26 | 12:10 | +21.9 | 9,5 | 221.5 | 7.6 | 42 | 5.3 | 45.3 | 1002.3 | 0.0 |
07/05/26 | 12:20 | +21.5 | 10,3 | 215.1 | 4 | 140 | 5.6 | 48.9 | 1002.2 | 0.0 |
07/05/26 | 12:30 | +22.1 | 10,6 | 245.7 | 5.4 | 117 | 5.5 | 48.1 | 1002.2 | 0.0 |
07/05/26 | 12:40 | +22.3 | 11,2 | 212.9 | 10.1 | 38 | 5.1 | 49.3 | 1002.0 | 0.0 |